Desert Springs, Nevada Weather observations

Data are for 10 minute period ending at time listed.
 Day   Time    Ave.   Ave.  Ave.  Vector   Max.   Total    Solar   
  of    of     Air    Rel.  Wind   Wind    Wind  Precip.   Rad.    
Year   Day     Temp.  Hum.  Speed  Dir.    Gust                    
2015   (PST)    F      %     mph   deg.    mph     in.     W/m2    
------------------------------------------------------------------- 
  58    5:00   37.0    54    1.0   352      4.0    1.68       0  
  58    6:00   36.0    57    2.0   281      4.0    1.68       0  
  58    7:00   36.0    57    1.0   309      4.0    1.68       1  
  58    8:00   36.0    64    2.0   332      5.0    1.68      48  
  58    9:00   37.0    66    3.0   284      5.0    1.68     117  
  58   10:00   44.0    53    3.0   270      6.0    1.68     321  
  58   11:00   45.0    42   15.0   296     24.0    1.68     535  
  58   12:00   47.0    45    6.0   211     29.0    1.68     572  
  58   13:00   47.0    36   16.0   262     26.0    1.68     466  
  58   14:00   46.0    39   33.0   284     40.0    1.68     581  
  58   15:00   45.0    39   29.0   305     40.0    1.68     713  
  58   16:00   42.0    52   19.0   304     38.0    1.68     345  
  58   17:00   39.0    62   17.0   283     38.0    1.68     162  
  58   18:00   39.0    60   17.0   278     24.0    1.68     119  
  58   19:00   37.0    66   14.0   284     24.0    1.68       1  
  58   20:00   36.0    67    9.0   288     17.0    1.68       0  
  58   21:00   32.0    92    8.0    21     14.0    1.68       0  
  58   22:00   31.0    96    5.0    26     10.0    1.68       0  
  58   23:00   31.0    97    6.0    43     15.0    1.68       0  
  59    0:00   31.0    97    4.0   307      7.0    1.68       0  
  59    1:00   31.0    97    3.0    16      5.0    1.68       0  
  59    2:00   31.0    97    3.0     5      6.0    1.68       0  
  59    3:00   30.0    98    5.0   304      9.0    1.68       0  
  59    4:00   30.0    98    6.0   272      8.0    1.68       0  

Return to Desert Springs, Nevada graphs page.


Western Regional Climate Center,wrcc@dri.edu